createdAt,value
2019-04-14T00:00:11.908Z,86.80
2019-04-14T00:02:44.697Z,87.20
2019-04-14T00:05:16.924Z,86.60
2019-04-14T00:07:47.177Z,86.50
2019-04-14T00:10:18.260Z,87.00
2019-04-14T00:12:47.477Z,87.10
2019-04-14T00:15:24.480Z,87.20
2019-04-14T00:17:47.917Z,87.50
2019-04-14T00:20:18.498Z,87.90
2019-04-14T00:22:49.055Z,87.70
2019-04-14T00:25:19.367Z,87.70
2019-04-14T00:27:49.928Z,87.50
2019-04-14T00:30:20.895Z,87.40
2019-04-14T00:32:52.970Z,87.70
2019-04-14T00:35:24.017Z,88.20
2019-04-14T00:38:11.113Z,87.50
2019-04-14T00:40:45.419Z,87.60
2019-04-14T00:43:28.739Z,87.50
2019-04-14T00:46:01.097Z,87.20
2019-04-14T00:48:30.480Z,87.20
2019-04-14T00:51:00.576Z,87.20
2019-04-14T00:53:31.699Z,87.20
2019-04-14T00:56:01.950Z,87.50
2019-04-14T00:58:32.192Z,87.80
2019-04-14T01:01:02.728Z,87.90
2019-04-14T01:03:33.014Z,88.50
2019-04-14T01:06:03.254Z,89.00
2019-04-14T01:08:33.517Z,89.00
2019-04-14T01:11:03.084Z,89.50
2019-04-14T01:13:33.296Z,90.30
2019-04-14T01:16:09.477Z,90.30
2019-04-14T01:18:34.056Z,91.00
2019-04-14T01:21:04.504Z,91.80
2019-04-14T01:23:34.800Z,92.20
2019-04-14T01:26:05.029Z,92.70
2019-04-14T01:28:35.433Z,92.90
2019-04-14T01:31:05.826Z,93.30
2019-04-14T01:33:35.833Z,93.20
2019-04-14T01:36:06.090Z,92.90
2019-04-14T01:38:36.379Z,92.90
2019-04-14T01:41:26.094Z,92.80
2019-04-14T01:43:56.065Z,92.20
2019-04-14T01:46:28.356Z,91.80
2019-04-14T01:48:56.510Z,91.80
2019-04-14T01:51:37.384Z,91.90
2019-04-14T01:54:25.683Z,92.00
2019-04-14T01:57:15.368Z,92.50
2019-04-14T01:59:45.918Z,92.90
2019-04-14T02:02:20.568Z,93.40
2019-04-14T02:04:50.782Z,93.50
2019-04-14T02:07:21.322Z,93.60
2019-04-14T02:09:51.068Z,93.80
2019-04-14T02:12:21.391Z,93.80
2019-04-14T02:14:51.640Z,93.90
2019-04-14T02:17:22.023Z,93.90
2019-04-14T02:19:52.383Z,93.80
2019-04-14T02:22:22.376Z,93.60
2019-04-14T02:24:52.714Z,93.40
2019-04-14T02:27:23.207Z,93.20
2019-04-14T02:29:53.741Z,93.10
2019-04-14T02:32:49.391Z,93.00
2019-04-14T02:35:26.022Z,92.80
2019-04-14T02:37:55.930Z,92.50
2019-04-14T02:40:31.247Z,92.20
2019-04-14T02:42:54.256Z,92.10
2019-04-14T02:45:32.297Z,92.10
2019-04-14T02:53:01.684Z,92.60
2019-04-14T02:55:22.173Z,92.10
2019-04-14T02:58:06.023Z,91.80
2019-04-14T03:00:31.630Z,91.40
2019-04-14T03:03:03.458Z,91.30
2019-04-14T03:05:34.220Z,91.10
2019-04-14T03:07:59.953Z,91.20
2019-04-14T03:10:31.855Z,91.30
2019-04-14T03:13:09.427Z,91.60
2019-04-14T03:23:53.485Z,92.50
2019-04-14T03:26:15.475Z,92.30
2019-04-14T03:28:45.567Z,92.20
2019-04-14T03:31:39.363Z,92.60
2019-04-14T03:34:12.823Z,92.50
2019-04-14T03:43:48.472Z,90.50
2019-04-14T03:51:40.423Z,91.20
2019-04-14T03:53:53.495Z,90.90
2019-04-14T03:56:09.197Z,90.90
2019-04-14T03:58:37.910Z,90.60
2019-04-14T04:01:08.269Z,91.30
2019-04-14T04:03:39.222Z,91.40
2019-04-14T04:06:09.598Z,91.90
2019-04-14T04:08:39.866Z,91.20
2019-04-14T04:11:09.079Z,91.40
2019-04-14T04:13:39.032Z,91.60
2019-04-14T04:16:14.129Z,91.80
2019-04-14T04:18:54.550Z,91.80
2019-04-14T04:21:33.396Z,92.10
2019-04-14T04:24:08.492Z,91.90
2019-04-14T04:26:42.935Z,91.70
2019-04-14T04:29:16.304Z,91.50
2019-04-14T04:31:56.871Z,91.30
2019-04-14T04:34:27.829Z,90.90
2019-04-14T04:37:15.376Z,91.00
2019-04-14T04:39:47.491Z,91.20
2019-04-14T04:42:17.654Z,90.70
2019-04-14T04:44:46.957Z,90.90
2019-04-14T04:47:16.650Z,90.90
2019-04-14T04:49:46.894Z,91.20
2019-04-14T04:52:17.208Z,91.40
2019-04-14T04:54:47.418Z,91.50
2019-04-14T04:57:17.737Z,91.70
2019-04-14T04:59:47.491Z,91.70
2019-04-14T05:02:17.690Z,91.50
2019-04-14T05:04:48.301Z,91.10
2019-04-14T05:07:18.691Z,91.00
2019-04-14T05:09:49.700Z,90.90
2019-04-14T05:12:20.583Z,90.90
2019-04-14T05:14:58.858Z,90.50
2019-04-14T05:17:29.920Z,90.40
2019-04-14T05:19:59.241Z,90.40
2019-04-14T05:22:28.927Z,90.40
2019-04-14T05:24:59.211Z,90.20
2019-04-14T05:27:29.749Z,90.00
2019-04-14T05:30:00.317Z,89.70
2019-04-14T05:32:30.517Z,88.80
2019-04-14T05:35:00.872Z,86.70
2019-04-14T05:37:31.061Z,87.20
2019-04-14T05:40:01.606Z,87.10
2019-04-14T05:42:31.905Z,87.30
2019-04-14T05:45:02.313Z,87.40
2019-04-14T05:47:32.789Z,87.30
2019-04-14T05:50:03.093Z,85.20
2019-04-14T05:52:32.343Z,84.70
2019-04-14T05:55:02.488Z,84.90
2019-04-14T05:57:32.840Z,84.90
2019-04-14T06:00:02.020Z,85.20
2019-04-14T06:02:33.596Z,83.20
2019-04-14T06:05:03.716Z,82.20
2019-04-14T06:07:33.028Z,82.40
2019-04-14T06:10:02.217Z,83.10
2019-04-14T06:12:31.476Z,83.60
2019-04-14T06:15:01.621Z,82.70
2019-04-14T06:17:30.812Z,80.80
2019-04-14T06:20:00.041Z,80.70
2019-04-14T06:22:29.228Z,80.60
2019-04-14T06:24:58.669Z,81.90
2019-04-14T06:27:27.924Z,81.60
2019-04-14T06:29:59.013Z,78.60
2019-04-14T06:32:29.841Z,79.70
2019-04-14T06:35:16.939Z,77.70
2019-04-14T06:37:48.741Z,78.90
2019-04-14T06:40:18.611Z,79.20
2019-04-14T06:42:48.789Z,79.60
2019-04-14T06:45:17.968Z,78.70
2019-04-14T06:47:47.514Z,78.90
2019-04-14T06:50:16.730Z,80.00
2019-04-14T06:52:45.920Z,80.60
2019-04-14T06:55:15.097Z,78.80
2019-04-14T06:57:44.279Z,78.40
2019-04-14T07:00:13.456Z,79.40
2019-04-14T07:02:42.659Z,79.30
2019-04-14T07:05:11.825Z,80.00
2019-04-14T07:07:41.025Z,77.60
2019-04-14T07:10:10.269Z,79.50
2019-04-14T07:12:39.447Z,78.20
2019-04-14T07:15:08.625Z,78.20
2019-04-14T07:17:37.815Z,78.70
2019-04-14T07:20:07.077Z,79.00
2019-04-14T07:22:36.248Z,78.90
2019-04-14T07:25:06.040Z,78.40
2019-04-14T07:27:35.218Z,77.60
2019-04-14T07:30:09.537Z,78.50
2019-04-14T07:32:43.337Z,77.90
2019-04-14T07:35:17.085Z,76.80
2019-04-14T07:37:53.747Z,77.20
2019-04-14T07:40:24.581Z,77.30
2019-04-14T07:42:55.400Z,76.60
2019-04-14T07:45:26.229Z,75.70
2019-04-14T07:47:57.040Z,76.20
2019-04-14T07:50:44.389Z,76.30
2019-04-14T07:53:33.496Z,76.20
2019-04-14T07:56:10.004Z,75.00
2019-04-14T07:58:46.509Z,75.20
2019-04-14T08:01:17.344Z,75.90
2019-04-14T08:04:00.166Z,74.70
2019-04-14T08:06:29.429Z,74.20
2019-04-14T08:08:58.614Z,74.10
2019-04-14T08:11:27.784Z,72.80
2019-04-14T08:13:56.956Z,72.80
2019-04-14T08:16:26.140Z,71.60
2019-04-14T08:18:55.321Z,72.00
2019-04-14T08:21:24.515Z,73.20
2019-04-14T08:23:53.747Z,71.30
2019-04-14T08:26:23.932Z,71.20
2019-04-14T08:28:53.125Z,71.20
2019-04-14T08:31:22.328Z,69.40
2019-04-14T08:33:51.497Z,68.50
2019-04-14T08:36:20.946Z,68.30
2019-04-14T08:38:50.136Z,68.00
2019-04-14T08:41:19.396Z,66.70
2019-04-14T08:43:53.455Z,66.30
2019-04-14T08:46:27.309Z,68.30
2019-04-14T08:49:00.837Z,68.00
2019-04-14T08:51:31.918Z,68.40
2019-04-14T08:54:19.332Z,67.80
2019-04-14T08:56:50.148Z,66.70
2019-04-14T08:59:29.897Z,66.70
2019-04-14T09:02:12.928Z,68.00
2019-04-14T09:04:46.743Z,67.10
2019-04-14T09:07:23.349Z,66.60
2019-04-14T09:09:55.246Z,66.20
2019-04-14T09:12:28.820Z,66.60
2019-04-14T09:14:58.021Z,66.80
2019-04-14T09:17:28.861Z,65.10
2019-04-14T09:19:58.054Z,66.50
2019-04-14T09:22:27.224Z,67.40
2019-04-14T09:24:56.749Z,66.80
2019-04-14T09:27:25.912Z,64.70
2019-04-14T09:29:55.097Z,66.20
2019-04-14T09:32:25.491Z,64.90
2019-04-14T09:34:54.700Z,65.40
2019-04-14T09:37:23.897Z,66.20
2019-04-14T09:39:53.065Z,64.80
2019-04-14T09:42:22.257Z,65.00
2019-04-14T09:44:51.778Z,65.80
2019-04-14T09:47:20.952Z,66.70
2019-04-14T09:49:50.145Z,64.50
2019-04-14T09:52:19.320Z,66.30
2019-04-14T09:54:48.669Z,67.00
2019-04-14T09:57:17.856Z,65.70
2019-04-14T09:59:47.032Z,64.90
2019-04-14T10:02:16.213Z,63.30
2019-04-14T10:04:45.405Z,63.10
2019-04-14T10:07:14.574Z,65.20
2019-04-14T10:09:43.857Z,63.80
2019-04-14T10:12:13.108Z,63.50
2019-04-14T10:14:42.340Z,63.20
2019-04-14T10:17:11.737Z,63.80
2019-04-14T10:19:40.991Z,62.40
2019-04-14T10:22:10.469Z,62.50
2019-04-14T10:24:39.656Z,62.10
2019-04-14T10:27:08.826Z,62.00
2019-04-14T10:29:38.008Z,63.20
2019-04-14T10:32:07.206Z,62.50
2019-04-14T10:34:36.396Z,63.80
2019-04-14T10:37:05.595Z,61.40
2019-04-14T10:39:34.790Z,61.80
2019-04-14T10:42:03.989Z,61.20
2019-04-14T10:44:33.193Z,60.60
2019-04-14T10:47:02.379Z,59.30
2019-04-14T10:49:31.576Z,60.30
2019-04-14T10:52:00.806Z,56.90
2019-04-14T10:54:30.017Z,58.10
2019-04-14T10:57:01.107Z,58.60
2019-04-14T10:59:30.088Z,58.90
2019-04-14T11:01:59.287Z,57.20
2019-04-14T11:04:28.464Z,57.40
2019-04-14T11:07:02.272Z,57.60
2019-04-14T11:09:31.454Z,56.60
2019-04-14T11:12:00.655Z,56.60
2019-04-14T11:14:29.828Z,57.70
2019-04-14T11:16:59.023Z,58.50
2019-04-14T11:19:28.204Z,57.30
2019-04-14T11:21:57.391Z,58.10
2019-04-14T11:24:26.576Z,59.20
2019-04-14T11:26:55.780Z,59.30
2019-04-14T11:29:24.952Z,59.40
2019-04-14T11:31:55.803Z,60.40
2019-04-14T11:34:26.706Z,61.40
2019-04-14T11:36:57.529Z,60.50
2019-04-14T11:39:26.793Z,60.00
2019-04-14T11:41:55.992Z,59.80
2019-04-14T11:44:25.169Z,59.10
2019-04-14T11:46:54.365Z,60.00
2019-04-14T11:49:23.569Z,60.60
2019-04-14T11:51:55.488Z,59.50
2019-04-14T11:54:23.642Z,59.10
2019-04-14T11:56:53.203Z,58.60
2019-04-14T11:59:24.013Z,59.80
2019-04-14T12:02:06.876Z,59.00
2019-04-14T12:04:40.722Z,58.30
2019-04-14T12:07:14.150Z,58.80
2019-04-14T12:09:45.266Z,58.90
2019-04-14T12:12:14.463Z,59.30
2019-04-14T12:14:43.636Z,58.90
2019-04-14T12:17:12.820Z,59.20
2019-04-14T12:19:43.070Z,59.00
2019-04-14T12:22:12.260Z,58.20
2019-04-14T12:24:41.444Z,58.40
2019-04-14T12:27:10.634Z,59.20
2019-04-14T12:29:41.115Z,58.20
2019-04-14T12:32:10.869Z,58.90
2019-04-14T12:34:40.108Z,56.30
2019-04-14T12:37:09.304Z,57.40
2019-04-14T12:39:39.760Z,56.10
2019-04-14T12:42:19.629Z,55.60
2019-04-14T12:44:50.747Z,55.40
2019-04-14T12:47:24.558Z,55.80
2019-04-14T12:49:55.386Z,56.00
2019-04-14T12:52:26.210Z,55.20
2019-04-14T12:54:55.577Z,55.60
2019-04-14T12:57:32.625Z,56.30
2019-04-14T13:00:03.461Z,55.30
2019-04-14T13:02:38.800Z,54.60
2019-04-14T13:05:08.141Z,54.80
2019-04-14T13:07:37.341Z,55.00
2019-04-14T13:10:07.373Z,54.80
2019-04-14T13:12:36.561Z,55.20
2019-04-14T13:15:06.881Z,54.90
2019-04-14T13:17:36.089Z,54.40
2019-04-14T13:20:08.534Z,54.60
2019-04-14T13:22:37.734Z,55.40
2019-04-14T13:25:07.081Z,55.40
2019-04-14T13:27:36.278Z,55.70
2019-04-14T13:30:08.625Z,55.80
2019-04-14T13:32:37.784Z,56.10
2019-04-14T13:35:07.557Z,54.60
2019-04-14T13:37:36.737Z,54.30
2019-04-14T13:40:06.369Z,55.00
2019-04-14T13:42:35.551Z,56.20
2019-04-14T13:45:05.890Z,55.30
2019-04-14T13:47:35.088Z,55.20
2019-04-14T13:50:06.198Z,55.60
2019-04-14T13:52:46.166Z,55.30
2019-04-14T13:55:08.377Z,54.90
2019-04-14T13:57:37.564Z,56.10
2019-04-14T14:00:13.377Z,55.00
2019-04-14T14:02:43.045Z,55.80
2019-04-14T14:05:12.709Z,56.70
2019-04-14T14:07:41.897Z,56.20
2019-04-14T14:10:11.338Z,56.20
2019-04-14T14:12:48.433Z,55.60
2019-04-14T14:15:31.213Z,55.90
2019-04-14T14:18:17.289Z,56.30
2019-04-14T14:21:03.024Z,57.40
2019-04-14T14:23:34.080Z,54.80
2019-04-14T14:26:21.105Z,55.40
2019-04-14T14:28:51.377Z,56.50
2019-04-14T14:31:21.648Z,56.00
2019-04-14T14:33:50.833Z,56.30
2019-04-14T14:36:20.244Z,56.00
2019-04-14T14:38:49.470Z,56.50
2019-04-14T14:41:18.865Z,54.80
2019-04-14T14:43:48.050Z,55.60
2019-04-14T14:46:36.896Z,55.60
2019-04-14T14:49:08.036Z,55.80
2019-04-14T14:51:50.820Z,56.60
2019-04-14T14:54:20.024Z,57.10
2019-04-14T14:56:49.220Z,56.30
2019-04-14T14:59:18.423Z,56.80
2019-04-14T15:01:47.601Z,56.80
2019-04-14T15:04:19.070Z,57.30
2019-04-14T15:06:47.752Z,56.10
2019-04-14T15:09:16.928Z,56.50
2019-04-14T15:11:46.131Z,56.40
2019-04-14T15:14:15.341Z,57.40
2019-04-14T15:16:44.537Z,56.90
2019-04-14T15:19:13.714Z,56.60
2019-04-14T15:21:42.912Z,56.70
2019-04-14T15:24:12.094Z,57.20
2019-04-14T15:26:41.289Z,56.60
2019-04-14T15:29:10.464Z,57.70
2019-04-14T15:31:39.669Z,56.60
2019-04-14T15:34:10.621Z,55.40
2019-04-14T15:36:39.745Z,56.50
2019-04-14T15:39:09.259Z,56.30
2019-04-14T15:41:38.633Z,56.80
2019-04-14T15:44:07.822Z,56.80
2019-04-14T15:46:37.005Z,57.70
2019-04-14T15:49:06.244Z,57.60
2019-04-14T15:51:35.433Z,58.20
2019-04-14T15:54:04.708Z,58.20
2019-04-14T15:56:38.384Z,58.30
2019-04-14T15:59:09.199Z,58.40
2019-04-14T16:01:42.954Z,58.50
2019-04-14T16:04:16.445Z,59.10
2019-04-14T16:06:50.292Z,60.50
2019-04-14T16:09:21.130Z,59.70
2019-04-14T16:12:10.299Z,60.00
2019-04-14T16:14:57.587Z,60.80
2019-04-14T16:17:37.472Z,61.70
2019-04-14T16:20:08.345Z,62.40
2019-04-14T16:22:39.023Z,63.40
2019-04-14T16:25:08.566Z,62.70
2019-04-14T16:27:39.400Z,62.70
2019-04-14T16:30:16.373Z,63.00
2019-04-14T16:32:47.209Z,62.80
2019-04-14T16:35:26.877Z,63.30
2019-04-14T16:37:56.068Z,62.80
2019-04-14T16:40:25.249Z,63.20
2019-04-14T16:42:54.444Z,63.10
2019-04-14T16:45:23.652Z,62.60
2019-04-14T16:47:52.832Z,63.40
2019-04-14T16:50:22.071Z,63.40
2019-04-14T16:52:58.740Z,62.40
2019-04-14T16:55:30.059Z,61.40
2019-04-14T16:58:00.989Z,61.60
2019-04-14T17:00:31.878Z,61.90
2019-04-14T17:03:01.091Z,63.50
2019-04-14T17:05:30.327Z,64.40
2019-04-14T17:07:59.516Z,64.20
2019-04-14T17:10:28.717Z,63.70
2019-04-14T17:12:58.173Z,63.00
2019-04-14T17:15:41.244Z,64.20
2019-04-14T17:18:18.013Z,65.20
2019-04-14T17:20:57.579Z,65.70
2019-04-14T17:23:31.088Z,65.00
2019-04-14T17:26:10.729Z,64.70
2019-04-14T17:28:47.581Z,64.70
2019-04-14T17:31:21.389Z,65.40
2019-04-14T17:34:08.517Z,65.00
2019-04-14T17:36:45.029Z,65.40
2019-04-14T17:39:15.860Z,65.80
2019-04-14T17:41:50.002Z,65.90
2019-04-14T17:44:24.102Z,66.40
2019-04-14T17:46:54.910Z,66.30
2019-04-14T17:49:31.436Z,66.40
2019-04-14T17:52:18.632Z,66.80
2019-04-14T17:54:49.443Z,67.00
2019-04-14T17:57:29.508Z,67.10
2019-04-14T18:00:13.401Z,67.20
2019-04-14T18:02:51.581Z,67.10
2019-04-14T18:05:37.739Z,67.40
2019-04-14T18:08:08.575Z,67.60
2019-04-14T18:10:42.039Z,67.40
2019-04-14T18:13:12.871Z,67.50
2019-04-14T18:16:00.269Z,67.60
2019-04-14T18:18:47.604Z,67.90
2019-04-14T18:21:16.798Z,67.60
2019-04-14T18:23:45.996Z,68.00
2019-04-14T18:26:15.187Z,68.30
2019-04-14T18:28:48.700Z,68.20
2019-04-14T18:31:25.557Z,68.60
2019-04-14T18:33:59.370Z,69.00
2019-04-14T18:36:36.333Z,68.90
2019-04-14T18:39:09.904Z,69.40
2019-04-14T18:41:50.177Z,69.30
2019-04-14T18:44:21.972Z,69.20
2019-04-14T18:47:09.245Z,69.30
2019-04-14T18:49:40.068Z,69.50
2019-04-14T18:52:10.887Z,69.70
2019-04-14T18:54:55.049Z,69.90
2019-04-14T18:57:28.844Z,69.80
2019-04-14T19:00:05.647Z,70.10
2019-04-14T19:02:36.505Z,69.80
2019-04-14T19:05:06.482Z,70.00
2019-04-14T19:07:35.651Z,70.30
2019-04-14T19:10:07.011Z,70.30
2019-04-14T19:12:44.008Z,70.40
2019-04-14T19:15:17.846Z,70.60
2019-04-14T19:17:48.669Z,70.80
2019-04-14T19:20:20.557Z,70.80
2019-04-14T19:22:49.749Z,70.40
2019-04-14T19:25:18.915Z,70.40
2019-04-14T19:27:48.108Z,70.20
2019-04-14T19:30:17.650Z,70.40
2019-04-14T19:32:46.823Z,70.60
2019-04-14T19:35:16.013Z,70.30
2019-04-14T19:37:45.438Z,70.60
2019-04-14T19:40:14.857Z,70.70
2019-04-14T19:42:44.045Z,70.70
2019-04-14T19:45:14.986Z,71.30
2019-04-14T19:47:44.295Z,71.50
2019-04-14T19:50:13.563Z,71.80
2019-04-14T19:52:42.751Z,71.90
2019-04-14T19:55:20.253Z,72.30
2019-04-14T19:57:42.815Z,72.60
2019-04-14T20:00:12.279Z,72.80
2019-04-14T20:02:41.722Z,72.60
2019-04-14T20:05:10.888Z,72.70
2019-04-14T20:07:40.075Z,72.50
2019-04-14T20:10:10.501Z,72.70
2019-04-14T20:12:39.674Z,72.90
2019-04-14T20:15:11.537Z,72.70
2019-04-14T20:17:51.533Z,72.80
2019-04-14T20:20:28.557Z,72.70
2019-04-14T20:23:12.519Z,72.70
2019-04-14T20:25:55.397Z,73.10
2019-04-14T20:28:26.213Z,73.40
2019-04-14T20:31:14.514Z,73.50
2019-04-14T20:33:43.684Z,73.60
2019-04-14T20:36:12.893Z,73.80
2019-04-14T20:38:42.064Z,73.90
2019-04-14T20:41:11.257Z,73.40
2019-04-14T20:43:40.448Z,73.70
2019-04-14T20:46:09.641Z,73.80
2019-04-14T20:48:38.819Z,73.90
2019-04-14T20:51:08.012Z,74.10
2019-04-14T20:53:37.182Z,73.90
2019-04-14T20:56:06.364Z,73.90
2019-04-14T20:58:35.786Z,74.10
2019-04-14T21:01:06.616Z,74.10
2019-04-14T21:03:40.474Z,74.30
2019-04-14T21:06:20.279Z,74.20
2019-04-14T21:08:51.069Z,74.10
2019-04-14T21:11:22.967Z,73.90
2019-04-14T21:14:08.766Z,73.50
2019-04-14T21:16:48.384Z,73.90
2019-04-14T21:19:19.218Z,73.50
2019-04-14T21:22:06.353Z,73.00
2019-04-14T21:24:39.880Z,73.00
2019-04-14T21:27:10.682Z,73.10
2019-04-14T21:29:41.500Z,73.20
2019-04-14T21:32:18.257Z,73.40
2019-04-14T21:34:58.284Z,73.60
2019-04-14T21:37:29.121Z,74.00
2019-04-14T21:40:05.863Z,74.20
2019-04-14T21:42:35.038Z,74.40
2019-04-14T21:45:06.257Z,74.60
2019-04-14T21:47:35.453Z,74.90
2019-04-14T21:50:06.061Z,75.00
2019-04-14T21:52:36.884Z,75.10
2019-04-14T21:55:07.389Z,75.50
2019-04-14T21:57:41.161Z,75.50
2019-04-14T22:00:22.965Z,75.20
2019-04-14T22:03:07.200Z,75.10
2019-04-14T22:05:50.174Z,75.30
2019-04-14T22:08:26.785Z,75.20
2019-04-14T22:10:57.580Z,75.50
2019-04-14T22:13:26.752Z,75.20
2019-04-14T22:15:55.935Z,75.60
2019-04-14T22:18:25.114Z,76.00
2019-04-14T22:20:54.278Z,76.00
2019-04-14T22:23:23.631Z,76.30
2019-04-14T22:25:52.799Z,76.30
2019-04-14T22:28:21.976Z,76.50
2019-04-14T22:30:51.208Z,76.40
2019-04-14T22:33:21.346Z,76.50
2019-04-14T22:35:50.524Z,76.70
2019-04-14T22:38:19.770Z,76.60
2019-04-14T22:40:48.956Z,76.60
2019-04-14T22:43:18.120Z,76.50
2019-04-14T22:45:47.314Z,76.70
2019-04-14T22:48:16.480Z,76.50
2019-04-14T22:50:45.644Z,76.60
2019-04-14T22:53:14.885Z,76.40
2019-04-14T22:55:44.082Z,76.70
2019-04-14T22:58:14.515Z,76.70
2019-04-14T23:00:45.341Z,76.50
2019-04-14T23:03:20.448Z,76.60
2019-04-14T23:06:00.500Z,76.40
2019-04-14T23:08:46.336Z,76.50
2019-04-14T23:11:32.548Z,76.50
2019-04-14T23:14:12.213Z,76.50
2019-04-14T23:16:58.038Z,76.70
2019-04-14T23:19:37.641Z,76.80
2019-04-14T23:22:27.605Z,76.90
2019-04-14T23:24:57.782Z,77.30
2019-04-14T23:27:26.921Z,77.30
2019-04-14T23:29:56.105Z,77.80
2019-04-14T23:32:25.269Z,77.90
2019-04-14T23:34:54.448Z,78.10
2019-04-14T23:37:23.866Z,78.30
2019-04-14T23:39:53.368Z,78.50
2019-04-14T23:42:22.544Z,78.40
2019-04-14T23:44:51.868Z,78.50
2019-04-14T23:47:21.053Z,78.30
2019-04-14T23:49:50.412Z,78.40
2019-04-14T23:52:19.572Z,78.50
2019-04-14T23:54:48.928Z,78.50
2019-04-14T23:57:18.277Z,78.50
2019-04-14T23:59:47.437Z,78.70
